Time;durP1;ratioP1;P1;durP2;ratioP2;P2;SDS_P1;SDS_P2;PMS_P1;PMS_P2;Temp;Humidity;BMP_temperature;BMP_pressure;BME280_temperature;BME280_humidity;BME280_pressure;Samples;Min_cycle;Max_cycle;Signal;HPM_P1;HPM_P2
2021/11/02 00:01:48;;;;;;;4.63;1.97;;;;;;;;;;5059756;28;20467;-82
2021/11/02 00:04:16;;;;;;;2.10;1.57;;;;;;;;;;5070462;28;20440;-78
2021/11/02 00:06:51;;;;;;;2.80;1.90;;;;;;;;;;5068682;28;20531;-81
2021/11/02 00:09:23;;;;;;;5.13;1.87;;;;;;;;;;5066506;28;20785;-80
2021/11/02 00:11:51;;;;;;;5.67;1.97;;;;;;;;;;5069215;28;20486;-81
2021/11/02 00:14:18;;;;;;;8.93;2.13;;;;;;;;;;5064620;28;20458;-81
2021/11/02 00:16:53;;;;;;;7.27;2.00;;;;;;;;;;5061514;28;20484;-85
2021/11/02 00:19:21;;;;;;;4.23;1.97;;;;;;;;;;5068254;28;20988;-81
2021/11/02 00:21:51;;;;;;;3.60;1.73;;;;;;;;;;5073998;28;21114;-83
2021/11/02 00:24:37;;;;;;;3.83;2.47;;;;;;;;;;5061523;28;20451;-80
2021/11/02 00:27:04;;;;;;;3.43;1.87;;;;;;;;;;5069120;28;20443;-79
2021/11/02 00:29:31;;;;;;;3.90;1.80;;;;;;;;;;5069601;28;20452;-83
2021/11/02 00:32:00;;;;;;;1.70;1.47;;;;;;;;;;5067999;28;20484;-80
2021/11/02 00:34:27;;;;;;;3.83;2.13;;;;;;;;;;5070441;28;20432;-78
2021/11/02 00:36:55;;;;;;;5.17;1.80;;;;;;;;;;5065071;28;20971;-81
2021/11/02 00:39:22;;;;;;;2.47;1.80;;;;;;;;;;5067637;28;20479;-81
2021/11/02 00:41:49;;;;;;;3.10;1.77;;;;;;;;;;5071651;28;20444;-81
2021/11/02 00:44:17;;;;;;;2.23;1.60;;;;;;;;;;5062340;28;20468;-80
2021/11/02 00:46:44;;;;;;;6.80;2.03;;;;;;;;;;5062595;28;21636;-84
2021/11/02 00:49:17;;;;;;;2.53;1.80;;;;;;;;;;5068162;28;20448;-85
2021/11/02 00:51:44;;;;;;;3.20;1.80;;;;;;;;;;5064900;28;20479;-78
2021/11/02 00:54:12;;;;;;;4.53;1.70;;;;;;;;;;5069404;28;20494;-80
2021/11/02 00:56:39;;;;;;;2.00;1.50;;;;;;;;;;5068221;28;20452;-81
2021/11/02 00:59:07;;;;;;;2.70;2.07;;;;;;;;;;5070221;28;20467;-82
2021/11/02 01:01:34;;;;;;;2.80;1.50;;;;;;;;;;5070338;28;20462;-79
2021/11/02 01:04:05;;;;;;;1.60;1.50;;;;;;;;;;5058304;28;20453;-80
2021/11/02 01:06:34;;;;;;;5.03;1.33;;;;;;;;;;5067097;28;20467;-79
2021/11/02 01:09:01;;;;;;;2.30;1.37;;;;;;;;;;5065561;28;20460;-79
2021/11/02 01:11:28;;;;;;;2.53;1.50;;;;;;;;;;5062649;28;20464;-81
2021/11/02 01:13:56;;;;;;;2.80;1.67;;;;;;;;;;5063590;28;20817;-82
2021/11/02 01:16:24;;;;;;;2.87;2.03;;;;;;;;;;5069398;28;20801;-79
2021/11/02 01:18:52;;;;;;;4.10;2.30;;;;;;;;;;5067837;28;20472;-82
2021/11/02 01:21:19;;;;;;;2.80;2.20;;;;;;;;;;5055535;28;20460;-78
2021/11/02 01:23:47;;;;;;;3.70;2.17;;;;;;;;;;5055330;28;20461;-79
2021/11/02 01:26:15;;;;;;;3.17;1.60;;;;;;;;;;5061780;28;20464;-80
2021/11/02 01:28:43;;;;;;;2.07;1.47;;;;;;;;;;5062042;28;20464;-81
2021/11/02 01:31:10;;;;;;;2.70;1.50;;;;;;;;;;5068473;28;20858;-80
2021/11/02 01:33:37;;;;;;;2.27;1.40;;;;;;;;;;5068909;28;20484;-82
2021/11/02 01:36:05;;;;;;;1.33;1.17;;;;;;;;;;5060736;28;20871;-79
2021/11/02 01:38:32;;;;;;;3.37;1.47;;;;;;;;;;5065357;28;20431;-81
2021/11/02 01:41:02;;;;;;;2.60;1.57;;;;;;;;;;5063685;28;20810;-84
2021/11/02 01:43:30;;;;;;;2.33;1.40;;;;;;;;;;5065966;28;20772;-82
2021/11/02 01:45:57;;;;;;;1.30;1.20;;;;;;;;;;5066517;28;20444;-83
2021/11/02 01:48:25;;;;;;;3.40;1.60;;;;;;;;;;5057395;28;20448;-81
2021/11/02 01:50:53;;;;;;;2.37;1.10;;;;;;;;;;5066844;28;20468;-79
2021/11/02 01:53:20;;;;;;;1.60;1.27;;;;;;;;;;5098005;28;20484;-79
2021/11/02 01:55:47;;;;;;;1.60;1.50;;;;;;;;;;5062442;28;20487;-78
2021/11/02 01:58:16;;;;;;;1.70;1.30;;;;;;;;;;5067772;28;20441;-82
2021/11/02 02:00:46;;;;;;;2.07;1.20;;;;;;;;;;5063849;28;20487;-77
2021/11/02 02:03:19;;;;;;;1.87;1.30;;;;;;;;;;5068873;28;20450;-86
2021/11/02 02:05:51;;;;;;;1.63;1.30;;;;;;;;;;5068558;28;20472;-82
2021/11/02 02:08:21;;;;;;;2.07;1.53;;;;;;;;;;5057188;28;20484;-80
2021/11/02 02:10:54;;;;;;;2.53;1.30;;;;;;;;;;5064755;28;20841;-79
2021/11/02 02:13:28;;;;;;;2.23;1.50;;;;;;;;;;5063714;28;20486;-84
2021/11/02 02:15:59;;;;;;;3.83;1.07;;;;;;;;;;5064686;28;20460;-81
2021/11/02 02:18:28;;;;;;;2.53;1.30;;;;;;;;;;5068084;28;20440;-84
2021/11/02 02:21:10;;;;;;;2.50;1.40;;;;;;;;;;5068287;28;20456;-85
2021/11/02 02:23:47;;;;;;;2.90;1.30;;;;;;;;;;5038561;28;21017;-87
2021/11/02 02:26:21;;;;;;;2.90;1.20;;;;;;;;;;5030556;28;20972;-81
2021/11/02 02:28:56;;;;;;;2.43;1.43;;;;;;;;;;5036697;28;20465;-81
2021/11/02 02:31:24;;;;;;;1.40;1.27;;;;;;;;;;5036302;28;20483;-81
2021/11/02 02:33:52;;;;;;;2.60;1.60;;;;;;;;;;5047135;28;20481;-80
2021/11/02 02:36:19;;;;;;;2.17;1.20;;;;;;;;;;5045411;28;20444;-82
2021/11/02 02:38:48;;;;;;;1.63;1.30;;;;;;;;;;5031590;28;20459;-85
2021/11/02 02:41:16;;;;;;;2.80;1.53;;;;;;;;;;5047690;28;20453;-84
2021/11/02 02:43:46;;;;;;;2.17;1.30;;;;;;;;;;5045797;28;20444;-81
2021/11/02 02:46:15;;;;;;;2.60;1.53;;;;;;;;;;5045704;28;20445;-79
2021/11/02 02:48:44;;;;;;;2.17;0.90;;;;;;;;;;5048276;28;20802;-83
2021/11/02 02:51:12;;;;;;;4.93;1.53;;;;;;;;;;5039196;28;20452;-80
2021/11/02 02:53:42;;;;;;;2.03;1.40;;;;;;;;;;5031040;28;20480;-82
2021/11/02 02:56:09;;;;;;;3.10;1.30;;;;;;;;;;5071214;28;20499;-81
2021/11/02 02:58:38;;;;;;;1.90;1.10;;;;;;;;;;5060320;28;20452;-81
2021/11/02 03:01:06;;;;;;;1.80;1.17;;;;;;;;;;5065676;28;20460;-82
2021/11/02 03:03:35;;;;;;;1.23;1.13;;;;;;;;;;5071252;28;20791;-86
2021/11/02 03:06:05;;;;;;;1.90;1.20;;;;;;;;;;5069355;28;20456;-80
2021/11/02 03:08:35;;;;;;;2.93;1.07;;;;;;;;;;5069923;28;20447;-83
2021/11/02 03:11:03;;;;;;;1.57;1.20;;;;;;;;;;5069145;28;20562;-81
2021/11/02 03:13:31;;;;;;;3.50;1.00;;;;;;;;;;5067843;28;20570;-80
2021/11/02 03:16:04;;;;;;;1.83;1.03;;;;;;;;;;5066937;28;20431;-82
2021/11/02 03:18:50;;;;;;;1.57;1.17;;;;;;;;;;5071220;28;20429;-81
2021/11/02 03:48:35;;;;;;;2.13;1.50;;;;;;;;;;5075301;28;20464;-79
2021/11/02 03:56:20;;;;;;;1.57;1.07;;;;;;;;;;5070823;28;20190;-82
2021/11/02 03:59:04;;;;;;;1.20;1.10;;;;;;;;;;5066990;28;20862;-80
2021/11/02 04:01:45;;;;;;;1.83;1.10;;;;;;;;;;5072009;28;20452;-79
2021/11/02 04:23:35;;;;;;;1.63;1.40;;;;;;;;;;5073642;28;20926;-79
2021/11/02 05:47:49;;;;;;;3.50;1.60;;;;;;;;;;5059174;28;20256;-79
2021/11/02 05:50:35;;;;;;;2.25;1.95;;;;;;;;;;5068788;28;20267;-82
2021/11/02 05:53:27;;;;;;;3.10;2.22;;;;;;;;;;5060060;28;20217;-80
2021/11/02 05:56:04;;;;;;;2.50;2.13;;;;;;;;;;5070739;28;20202;-81
2021/11/02 05:58:35;;;;;;;2.75;1.83;;;;;;;;;;5064828;28;20254;-79
2021/11/02 06:01:06;;;;;;;5.05;1.90;;;;;;;;;;5068241;28;20280;-81
2021/11/02 06:06:29;;;;;;;2.60;1.88;;;;;;;;;;5048752;28;20273;-80
2021/11/02 06:09:05;;;;;;;4.63;2.00;;;;;;;;;;5044316;28;20253;-85
2021/11/02 06:27:59;;;;;;;2.35;1.80;;;;;;;;;;5027357;28;20734;-81
2021/11/02 06:30:49;;;;;;;10.07;2.70;;;;;;;;;;5049961;28;20794;-81
2021/11/02 06:33:30;;;;;;;4.20;1.70;;;;;;;;;;4976745;28;20228;-81
2021/11/02 06:36:09;;;;;;;2.85;1.90;;;;;;;;;;4981554;28;20201;-83
2021/11/02 06:44:20;;;;;;;2.40;1.83;;;;;;;;;;5029360;28;20191;-82
2021/11/02 06:47:15;;;;;;;2.88;1.60;;;;;;;;;;5029525;28;20207;-79
2021/11/02 06:58:20;;;;;;;2.83;1.75;;;;;;;;;;5068199;28;20202;-83
2021/11/02 07:10:52;;;;;;;3.42;2.00;;;;;;;;;;5070496;28;20247;-84
2021/11/02 07:17:25;;;;;;;5.75;2.03;;;;;;;;;;5067582;28;20520;-81
2021/11/02 07:19:58;;;;;;;1.70;1.60;;;;;;;;;;5063995;28;20213;-81
2021/11/02 07:22:40;;;;;;;3.87;1.90;;;;;;;;;;5069380;28;20287;-77
2021/11/02 07:25:20;;;;;;;2.13;1.80;;;;;;;;;;5071139;28;20448;-80
2021/11/02 07:28:05;;;;;;;2.60;1.77;;;;;;;;;;5101038;28;20194;-79
2021/11/02 08:46:31;;;;;;;2.63;2.00;;;;;;;;;;5065440;28;20569;-80
2021/11/02 08:49:00;;;;;;;2.63;1.83;;;;;;;;;;5065970;28;20479;-81
2021/11/02 08:51:28;;;;;;;4.57;2.30;;;;;;;;;;5065419;28;20438;-81
2021/11/02 08:53:55;;;;;;;3.87;2.00;;;;;;;;;;5061555;28;20484;-78
2021/11/02 08:56:23;;;;;;;2.00;1.70;;;;;;;;;;5065463;28;20452;-84
2021/11/02 08:58:52;;;;;;;4.73;3.00;;;;;;;;;;5060435;28;20482;-79
2021/11/02 09:01:21;;;;;;;4.30;2.60;;;;;;;;;;5098142;28;20934;-78
2021/11/02 09:03:50;;;;;;;6.40;2.20;;;;;;;;;;5070019;28;20894;-79
2021/11/02 09:06:18;;;;;;;5.80;2.23;;;;;;;;;;5066050;28;20463;-77
2021/11/02 09:08:47;;;;;;;2.67;1.73;;;;;;;;;;5056549;28;20448;-81
2021/11/02 09:11:14;;;;;;;4.27;2.03;;;;;;;;;;5065768;28;20532;-81
2021/11/02 09:13:43;;;;;;;2.00;1.80;;;;;;;;;;5055728;28;20485;-77
2021/11/02 09:16:11;;;;;;;4.23;3.17;;;;;;;;;;5060922;28;20941;-78
2021/11/02 09:18:38;;;;;;;2.70;1.57;;;;;;;;;;5058835;28;20444;-80
2021/11/02 09:21:07;;;;;;;3.53;1.60;;;;;;;;;;5062427;28;20896;-81
2021/11/02 09:23:34;;;;;;;3.23;1.80;;;;;;;;;;5058841;28;20783;-84
2021/11/02 09:26:03;;;;;;;3.20;2.17;;;;;;;;;;5065878;28;20876;-78
2021/11/02 09:28:31;;;;;;;3.23;1.70;;;;;;;;;;5064183;28;20467;-83
2021/11/02 09:30:58;;;;;;;2.93;1.90;;;;;;;;;;5057399;28;20480;-77
2021/11/02 09:33:26;;;;;;;3.00;2.00;;;;;;;;;;5063213;28;20460;-80
2021/11/02 09:35:58;;;;;;;3.50;1.90;;;;;;;;;;5069325;28;20706;-80
2021/11/02 09:38:28;;;;;;;3.00;1.60;;;;;;;;;;5064951;28;20445;-78
2021/11/02 09:41:13;;;;;;;4.50;2.03;;;;;;;;;;5064525;28;20468;-79
2021/11/02 09:44:01;;;;;;;3.93;1.93;;;;;;;;;;5065555;28;20456;-79
2021/11/02 09:46:44;;;;;;;2.37;1.73;;;;;;;;;;5068280;28;20436;-82
2021/11/02 09:49:28;;;;;;;4.80;1.87;;;;;;;;;;5060071;28;20476;-80
2021/11/02 09:52:10;;;;;;;1.80;1.70;;;;;;;;;;5068012;28;20475;-77
2021/11/02 09:54:52;;;;;;;3.33;1.90;;;;;;;;;;5087230;28;20486;-77
2021/11/02 09:57:30;;;;;;;2.60;2.13;;;;;;;;;;5067565;28;20456;-80
2021/11/02 10:00:04;;;;;;;3.63;2.40;;;;;;;;;;5066117;28;20479;-81
2021/11/02 10:02:45;;;;;;;4.23;2.30;;;;;;;;;;5067531;28;20460;-81
2021/11/02 10:05:25;;;;;;;3.13;2.20;;;;;;;;;;5101740;28;20437;-78
2021/11/02 10:08:00;;;;;;;4.40;2.20;;;;;;;;;;5066053;28;20453;-76
2021/11/02 10:10:33;;;;;;;4.23;2.30;;;;;;;;;;5058136;28;20989;-81
2021/11/02 10:13:03;;;;;;;11.13;2.90;;;;;;;;;;5064743;28;20456;-78
2021/11/02 10:15:46;;;;;;;4.53;2.60;;;;;;;;;;5067810;28;20889;-80
2021/11/02 10:18:21;;;;;;;4.00;2.40;;;;;;;;;;5062967;28;20548;-79
2021/11/02 10:21:03;;;;;;;4.17;2.30;;;;;;;;;;5067801;28;21041;-80
2021/11/02 10:23:39;;;;;;;4.37;2.80;;;;;;;;;;5086954;27;20460;-78
2021/11/02 10:26:24;;;;;;;6.80;2.37;;;;;;;;;;5072600;28;20456;-80
2021/11/02 10:29:04;;;;;;;4.60;2.27;;;;;;;;;;5061537;28;20874;-78
2021/11/02 10:31:35;;;;;;;3.97;2.17;;;;;;;;;;5070455;28;20463;-79
2021/11/02 10:34:04;;;;;;;3.03;2.40;;;;;;;;;;5072765;28;20476;-80
2021/11/02 10:36:35;;;;;;;3.50;2.33;;;;;;;;;;5065450;28;20945;-81
2021/11/02 10:39:10;;;;;;;3.23;2.30;;;;;;;;;;5070543;28;20440;-77
2021/11/02 10:41:43;;;;;;;6.20;3.03;;;;;;;;;;5069373;28;20493;-77
2021/11/02 10:46:39;;;;;;;4.27;2.50;;;;;;;;;;5060252;28;20533;-82
2021/11/02 10:49:10;;;;;;;2.87;2.50;;;;;;;;;;5066742;28;20804;-80
2021/11/02 10:51:39;;;;;;;3.40;2.50;;;;;;;;;;5065682;28;20471;-81
2021/11/02 10:54:17;;;;;;;3.07;2.00;;;;;;;;;;5068370;28;20475;-79
2021/11/02 10:56:51;;;;;;;3.97;2.30;;;;;;;;;;5065633;28;20863;-80
2021/11/02 10:59:19;;;;;;;3.23;2.93;;;;;;;;;;5064700;28;20475;-79
2021/11/02 11:01:48;;;;;;;3.53;2.83;;;;;;;;;;5072053;28;20443;-82
2021/11/02 11:04:15;;;;;;;3.20;2.90;;;;;;;;;;5069993;28;20471;-80
2021/11/02 11:06:44;;;;;;;5.80;2.97;;;;;;;;;;5066460;28;20471;-80
2021/11/02 11:09:12;;;;;;;5.87;3.03;;;;;;;;;;5073233;28;20555;-78
2021/11/02 11:11:41;;;;;;;4.17;3.30;;;;;;;;;;5072568;28;20523;-77
2021/11/02 11:14:13;;;;;;;3.70;2.67;;;;;;;;;;5064854;28;20463;-77
2021/11/02 11:16:44;;;;;;;4.23;3.83;;;;;;;;;;5065497;28;20460;-80
2021/11/02 11:19:16;;;;;;;5.77;3.67;;;;;;;;;;5070727;28;20977;-77
2021/11/02 11:21:44;;;;;;;4.37;2.60;;;;;;;;;;5071511;28;20433;-82
2021/11/02 11:24:14;;;;;;;2.70;2.33;;;;;;;;;;5070174;28;20881;-77
2021/11/02 11:26:46;;;;;;;3.30;3.00;;;;;;;;;;5070231;28;20467;-77
2021/11/02 11:29:19;;;;;;;4.97;2.90;;;;;;;;;;5073280;28;20467;-86
2021/11/02 11:31:46;;;;;;;2.80;2.50;;;;;;;;;;5065361;28;20480;-77
2021/11/02 11:34:15;;;;;;;3.90;3.07;;;;;;;;;;5068241;28;20539;-79
2021/11/02 11:36:48;;;;;;;2.80;2.50;;;;;;;;;;5064989;28;20460;-78
2021/11/02 11:39:18;;;;;;;4.07;2.30;;;;;;;;;;5059997;28;20510;-77
2021/11/02 11:41:50;;;;;;;3.77;2.47;;;;;;;;;;5069187;28;20909;-84
2021/11/02 11:44:18;;;;;;;4.50;3.37;;;;;;;;;;5056335;28;21126;-80
2021/11/02 11:46:47;;;;;;;3.80;3.00;;;;;;;;;;5070201;28;20448;-82
2021/11/02 11:49:23;;;;;;;3.97;2.90;;;;;;;;;;5071327;28;20484;-78
2021/11/02 11:51:55;;;;;;;5.20;2.83;;;;;;;;;;5069022;28;20959;-84
2021/11/02 11:54:23;;;;;;;7.00;2.90;;;;;;;;;;5065313;28;20847;-77
2021/11/02 11:56:59;;;;;;;4.13;3.03;;;;;;;;;;5067263;28;20468;-78
2021/11/02 11:59:27;;;;;;;7.17;3.90;;;;;;;;;;5068197;28;20877;-81
2021/11/02 12:01:58;;;;;;;4.47;3.00;;;;;;;;;;5067561;28;20455;-79
2021/11/02 12:04:32;;;;;;;4.90;3.43;;;;;;;;;;5065081;28;21007;-79
2021/11/02 12:07:04;;;;;;;4.40;3.00;;;;;;;;;;5066384;28;20460;-84
2021/11/02 12:09:39;;;;;;;4.10;2.93;;;;;;;;;;5066370;28;20483;-79
2021/11/02 12:12:09;;;;;;;4.27;2.73;;;;;;;;;;5058228;28;20460;-79
2021/11/02 12:14:43;;;;;;;3.63;2.50;;;;;;;;;;5061987;28;20835;-76
2021/11/02 12:17:15;;;;;;;3.00;2.70;;;;;;;;;;5069472;28;20881;-78
2021/11/02 12:19:47;;;;;;;4.10;2.77;;;;;;;;;;5068196;28;20456;-79
2021/11/02 12:22:18;;;;;;;5.50;2.80;;;;;;;;;;5053934;28;20461;-82
2021/11/02 12:24:46;;;;;;;3.40;2.97;;;;;;;;;;5064600;28;20440;-77
2021/11/02 12:27:15;;;;;;;3.13;2.83;;;;;;;;;;5066271;28;20455;-79
2021/11/02 12:29:42;;;;;;;2.90;2.40;;;;;;;;;;5060630;28;20472;-77
2021/11/02 12:32:12;;;;;;;3.40;2.13;;;;;;;;;;5050513;28;20429;-82
2021/11/02 12:34:51;;;;;;;4.60;2.47;;;;;;;;;;5064534;28;20492;-81
2021/11/02 12:37:19;;;;;;;5.03;2.47;;;;;;;;;;5066566;28;20486;-79
2021/11/02 12:39:48;;;;;;;4.03;2.60;;;;;;;;;;5066318;28;20468;-79
2021/11/02 12:42:20;;;;;;;3.17;2.50;;;;;;;;;;5066507;28;20525;-78
2021/11/02 12:44:49;;;;;;;7.57;2.80;;;;;;;;;;5062646;28;20808;-82
2021/11/02 12:47:19;;;;;;;5.83;3.30;;;;;;;;;;5068326;28;21007;-83
2021/11/02 12:49:48;;;;;;;5.60;3.07;;;;;;;;;;5066960;28;20916;-80
2021/11/02 12:52:18;;;;;;;4.00;3.60;;;;;;;;;;5069980;28;20448;-78
2021/11/02 12:54:58;;;;;;;3.87;3.40;;;;;;;;;;5063844;28;20476;-77
2021/11/02 12:57:33;;;;;;;3.73;3.00;;;;;;;;;;5066195;28;20428;-76
2021/11/02 13:00:01;;;;;;;6.60;3.60;;;;;;;;;;5070451;28;20476;-80
2021/11/02 13:02:33;;;;;;;5.73;3.13;;;;;;;;;;5076899;28;20462;-78
2021/11/02 13:05:03;;;;;;;4.00;3.10;;;;;;;;;;5061332;28;21013;-79
2021/11/02 13:07:36;;;;;;;6.50;3.30;;;;;;;;;;5065165;28;20623;-79
2021/11/02 13:10:04;;;;;;;5.67;3.13;;;;;;;;;;5066095;28;20476;-81
2021/11/02 13:12:35;;;;;;;3.30;3.00;;;;;;;;;;5065703;28;20437;-81
2021/11/02 13:15:03;;;;;;;3.60;2.73;;;;;;;;;;5056752;28;20488;-80
2021/11/02 13:17:41;;;;;;;4.20;3.00;;;;;;;;;;5067580;28;20456;-78
2021/11/02 13:20:10;;;;;;;4.90;3.13;;;;;;;;;;5068496;28;20543;-79
2021/11/02 13:22:37;;;;;;;3.73;3.10;;;;;;;;;;5058021;28;20783;-79
2021/11/02 13:25:06;;;;;;;6.23;2.60;;;;;;;;;;5072486;28;20455;-79
2021/11/02 13:27:35;;;;;;;3.57;3.00;;;;;;;;;;5060138;28;20460;-77
2021/11/02 13:30:17;;;;;;;3.60;2.77;;;;;;;;;;5057703;28;20503;-77
2021/11/02 13:32:53;;;;;;;5.53;3.03;;;;;;;;;;5052330;28;20562;-77
2021/11/02 13:35:37;;;;;;;3.23;2.57;;;;;;;;;;5066531;28;20487;-77
2021/11/02 13:38:19;;;;;;;3.87;3.00;;;;;;;;;;5057317;28;20976;-80
2021/11/02 13:40:46;;;;;;;3.07;2.60;;;;;;;;;;5068759;28;20476;-81
2021/11/02 13:43:24;;;;;;;4.30;2.67;;;;;;;;;;5068230;28;20456;-77
2021/11/02 13:45:52;;;;;;;4.47;3.03;;;;;;;;;;5068430;28;20814;-80
2021/11/02 13:48:19;;;;;;;5.53;2.50;;;;;;;;;;5066177;28;20437;-80
2021/11/02 13:50:48;;;;;;;3.33;2.37;;;;;;;;;;5059882;28;20476;-79
2021/11/02 13:53:16;;;;;;;3.20;2.67;;;;;;;;;;5066644;28;20460;-78
2021/11/02 13:55:43;;;;;;;3.37;2.87;;;;;;;;;;5067647;28;20480;-78
2021/11/02 13:58:11;;;;;;;4.77;2.60;;;;;;;;;;5062254;28;20704;-81
2021/11/02 14:00:39;;;;;;;3.13;2.67;;;;;;;;;;5053221;28;20833;-79
2021/11/02 14:03:09;;;;;;;5.03;2.77;;;;;;;;;;5066403;28;20530;-81
2021/11/02 14:05:37;;;;;;;5.93;3.60;;;;;;;;;;5069815;28;20442;-80
2021/11/02 14:08:06;;;;;;;3.10;2.80;;;;;;;;;;5064016;28;20969;-80
2021/11/02 14:10:34;;;;;;;2.90;2.60;;;;;;;;;;5062622;28;20476;-77
2021/11/02 14:13:01;;;;;;;7.40;2.93;;;;;;;;;;5060272;28;20804;-80
2021/11/02 14:15:29;;;;;;;3.53;2.63;;;;;;;;;;5068012;28;20479;-79
2021/11/02 14:18:13;;;;;;;2.73;2.27;;;;;;;;;;5064459;28;20467;-77
2021/11/02 14:20:41;;;;;;;2.40;2.20;;;;;;;;;;5084512;28;20479;-78
2021/11/02 14:23:10;;;;;;;2.37;2.00;;;;;;;;;;5058650;28;20502;-78
2021/11/02 14:25:39;;;;;;;3.20;1.77;;;;;;;;;;5099903;28;20461;-84
2021/11/02 14:28:07;;;;;;;1.73;1.30;;;;;;;;;;5066208;28;20466;-79
2021/11/02 14:30:38;;;;;;;1.03;0.93;;;;;;;;;;5060978;28;20479;-81
2021/11/02 14:33:06;;;;;;;1.87;1.13;;;;;;;;;;5067966;28;20777;-79
2021/11/02 14:35:38;;;;;;;2.03;1.07;;;;;;;;;;5065550;28;20822;-80
2021/11/02 14:38:07;;;;;;;1.20;1.10;;;;;;;;;;5066745;28;20466;-84
2021/11/02 14:40:36;;;;;;;1.43;1.00;;;;;;;;;;5071392;28;20479;-77
2021/11/02 14:43:21;;;;;;;1.60;1.30;;;;;;;;;;5067312;28;20460;-78
2021/11/02 14:45:50;;;;;;;1.33;1.13;;;;;;;;;;5068831;28;20459;-78
2021/11/02 14:48:32;;;;;;;2.20;1.50;;;;;;;;;;5065767;28;20503;-81
2021/11/02 14:51:00;;;;;;;1.77;1.40;;;;;;;;;;5070160;28;20868;-80
2021/11/02 14:53:31;;;;;;;6.33;2.07;;;;;;;;;;5062129;28;20513;-77
2021/11/02 14:56:00;;;;;;;1.70;1.60;;;;;;;;;;5073847;28;20486;-80
2021/11/02 14:58:42;;;;;;;4.40;1.40;;;;;;;;;;5067582;28;20444;-76
2021/11/02 15:01:10;;;;;;;2.10;1.77;;;;;;;;;;5070525;28;20440;-79
2021/11/02 15:03:38;;;;;;;2.30;1.87;;;;;;;;;;5067426;28;20945;-77
2021/11/02 15:06:06;;;;;;;3.30;1.90;;;;;;;;;;5071430;28;20444;-78
2021/11/02 15:08:33;;;;;;;2.63;2.10;;;;;;;;;;5070221;28;20980;-76
2021/11/02 15:11:06;;;;;;;4.47;1.97;;;;;;;;;;5067969;28;20462;-77
2021/11/02 15:13:34;;;;;;;3.47;2.10;;;;;;;;;;5063813;28;20463;-77
2021/11/02 15:16:02;;;;;;;2.63;2.40;;;;;;;;;;5061124;28;20498;-79
2021/11/02 15:18:36;;;;;;;4.03;3.03;;;;;;;;;;5067450;28;20823;-81
2021/11/02 15:21:03;;;;;;;5.73;2.50;;;;;;;;;;5071391;28;20432;-84
2021/11/02 15:23:37;;;;;;;3.63;2.70;;;;;;;;;;5068223;28;20456;-82
2021/11/02 15:26:06;;;;;;;5.20;3.33;;;;;;;;;;5071257;28;20589;-77
2021/11/02 15:28:40;;;;;;;3.63;3.33;;;;;;;;;;5068551;28;20975;-79
2021/11/02 15:31:07;;;;;;;3.80;3.17;;;;;;;;;;5061297;28;20478;-83
2021/11/02 15:33:34;;;;;;;8.00;3.50;;;;;;;;;;5068896;28;20945;-78
2021/11/02 15:36:10;;;;;;;5.73;3.90;;;;;;;;;;5071139;28;20476;-79
2021/11/02 15:38:37;;;;;;;5.30;3.10;;;;;;;;;;5069700;28;20824;-78
2021/11/02 15:41:18;;;;;;;3.90;2.83;;;;;;;;;;5070904;28;20436;-77
2021/11/02 15:43:54;;;;;;;3.50;2.57;;;;;;;;;;5063681;28;20440;-76
2021/11/02 15:46:23;;;;;;;2.10;1.93;;;;;;;;;;5093015;28;20959;-83
2021/11/02 15:49:06;;;;;;;2.70;2.30;;;;;;;;;;5074992;28;20490;-80
2021/11/02 15:51:35;;;;;;;2.83;2.37;;;;;;;;;;5091205;28;20451;-79
2021/11/02 15:54:07;;;;;;;3.10;1.97;;;;;;;;;;5065013;28;20448;-82
2021/11/02 15:56:35;;;;;;;2.23;2.00;;;;;;;;;;5069317;28;20483;-79
2021/11/02 15:59:03;;;;;;;3.00;1.97;;;;;;;;;;5068374;28;20480;-83
2021/11/02 16:01:32;;;;;;;2.60;2.30;;;;;;;;;;5070085;28;20798;-78
2021/11/02 16:04:14;;;;;;;2.30;2.10;;;;;;;;;;5062435;28;20465;-80
2021/11/02 16:06:56;;;;;;;2.03;1.67;;;;;;;;;;5065812;28;20462;-79
2021/11/02 16:09:23;;;;;;;2.70;1.80;;;;;;;;;;5093857;28;20499;-78
2021/11/02 16:11:52;;;;;;;2.07;1.87;;;;;;;;;;5070523;28;20778;-81
2021/11/02 16:14:20;;;;;;;4.13;2.40;;;;;;;;;;5064582;28;20460;-79
2021/11/02 16:16:48;;;;;;;5.07;2.53;;;;;;;;;;5065061;28;20840;-82
2021/11/02 16:19:15;;;;;;;2.53;2.33;;;;;;;;;;5063008;28;20483;-81
2021/11/02 16:21:42;;;;;;;3.20;2.40;;;;;;;;;;5058843;28;20459;-78
2021/11/02 16:24:11;;;;;;;4.07;3.10;;;;;;;;;;5060199;28;20471;-78
2021/11/02 16:26:39;;;;;;;3.90;3.10;;;;;;;;;;5069202;28;20799;-78
2021/11/02 16:29:37;;;;;;;4.90;3.77;;;;;;;;;;5063064;28;20480;-77
2021/11/02 16:32:20;;;;;;;3.27;2.73;;;;;;;;;;5056332;28;20467;-78
2021/11/02 16:34:47;;;;;;;3.67;3.17;;;;;;;;;;5065942;28;20460;-83
2021/11/02 16:37:28;;;;;;;3.43;2.90;;;;;;;;;;5069642;28;20498;-78
2021/11/02 16:40:10;;;;;;;5.53;3.13;;;;;;;;;;5068181;28;20491;-82
2021/11/02 16:42:37;;;;;;;3.10;2.77;;;;;;;;;;5065361;28;20472;-80
2021/11/02 16:45:11;;;;;;;4.90;3.40;;;;;;;;;;5061696;28;20452;-80
2021/11/02 16:47:39;;;;;;;4.93;3.53;;;;;;;;;;5068644;28;20447;-80
2021/11/02 16:50:07;;;;;;;5.87;4.37;;;;;;;;;;5067629;28;20479;-77
2021/11/02 16:52:37;;;;;;;5.87;3.40;;;;;;;;;;5069403;28;20444;-82
2021/11/02 16:55:12;;;;;;;4.63;3.40;;;;;;;;;;5070245;28;20527;-79
2021/11/02 16:57:40;;;;;;;6.03;4.00;;;;;;;;;;5051349;28;21096;-79
2021/11/02 17:00:11;;;;;;;5.30;4.00;;;;;;;;;;5064394;28;20552;-83
2021/11/02 17:02:41;;;;;;;5.93;3.40;;;;;;;;;;5067194;28;20456;-80
2021/11/02 17:05:10;;;;;;;7.10;4.37;;;;;;;;;;5069055;28;20933;-78
2021/11/02 17:07:39;;;;;;;4.60;3.50;;;;;;;;;;5067032;28;20943;-79
2021/11/02 17:10:21;;;;;;;6.17;3.17;;;;;;;;;;5058323;28;20476;-79
2021/11/02 17:12:49;;;;;;;5.23;3.90;;;;;;;;;;5060554;28;20456;-77
2021/11/02 17:15:20;;;;;;;5.67;3.50;;;;;;;;;;5055710;28;20825;-78
2021/11/02 17:17:49;;;;;;;4.10;3.60;;;;;;;;;;5048414;28;20476;-79
2021/11/02 17:20:17;;;;;;;4.33;3.40;;;;;;;;;;5048768;28;20496;-80
2021/11/02 17:22:46;;;;;;;6.83;3.50;;;;;;;;;;5064906;28;20460;-80
2021/11/02 17:25:14;;;;;;;4.37;3.43;;;;;;;;;;5068993;28;20435;-80
2021/11/02 17:27:41;;;;;;;3.47;3.17;;;;;;;;;;5061934;28;20475;-77
2021/11/02 17:30:17;;;;;;;3.43;2.90;;;;;;;;;;5063836;28;20480;-80
2021/11/02 17:32:45;;;;;;;6.00;2.80;;;;;;;;;;5067402;28;20458;-80
2021/11/02 17:35:14;;;;;;;3.97;3.17;;;;;;;;;;5066529;28;20573;-78
2021/11/02 17:37:42;;;;;;;3.43;3.13;;;;;;;;;;5054735;28;21003;-76
2021/11/02 17:40:09;;;;;;;4.90;3.47;;;;;;;;;;5068667;28;20937;-80
2021/11/02 17:42:43;;;;;;;4.00;3.57;;;;;;;;;;5066992;28;20432;-80
2021/11/02 17:45:11;;;;;;;6.30;3.63;;;;;;;;;;5065939;28;20543;-79
2021/11/02 17:47:40;;;;;;;5.00;3.70;;;;;;;;;;5068921;28;20447;-81
2021/11/02 17:50:32;;;;;;;7.03;4.03;;;;;;;;;;5061097;28;20476;-81
2021/11/02 17:53:01;;;;;;;4.40;3.77;;;;;;;;;;5068033;28;20435;-81
2021/11/02 17:55:28;;;;;;;8.27;4.90;;;;;;;;;;5065812;28;21152;-81
2021/11/02 17:57:56;;;;;;;8.20;5.80;;;;;;;;;;5060640;28;20476;-81
2021/11/02 18:00:25;;;;;;;12.50;6.20;;;;;;;;;;5071267;28;20464;-76
2021/11/02 18:02:53;;;;;;;11.87;6.07;;;;;;;;;;5069546;28;20462;-77
2021/11/02 18:05:21;;;;;;;12.33;6.60;;;;;;;;;;5061552;28;20791;-74
2021/11/02 18:07:49;;;;;;;15.67;8.87;;;;;;;;;;5056870;28;20817;-80
2021/11/02 18:10:18;;;;;;;20.83;8.03;;;;;;;;;;5061842;28;20505;-84
2021/11/02 18:12:46;;;;;;;13.60;7.30;;;;;;;;;;5069334;28;20513;-78
2021/11/02 18:15:13;;;;;;;12.77;7.10;;;;;;;;;;5067279;28;20945;-76
2021/11/02 18:20:27;;;;;;;14.03;6.83;;;;;;;;;;5072229;28;20479;-79
2021/11/02 18:22:55;;;;;;;13.73;6.60;;;;;;;;;;5075305;28;20432;-77
2021/11/02 18:25:24;;;;;;;11.90;6.03;;;;;;;;;;5073230;28;20542;-85
2021/11/02 18:27:53;;;;;;;10.53;5.93;;;;;;;;;;5078611;28;20466;-77
2021/11/02 18:30:21;;;;;;;9.73;5.40;;;;;;;;;;5072295;28;20487;-85
2021/11/02 18:32:49;;;;;;;11.00;6.90;;;;;;;;;;5060664;28;20490;-83
2021/11/02 18:35:16;;;;;;;8.20;5.97;;;;;;;;;;5072255;28;20444;-81
2021/11/02 18:37:44;;;;;;;8.50;5.90;;;;;;;;;;5076058;28;20494;-82
2021/11/02 18:40:12;;;;;;;8.47;5.07;;;;;;;;;;5074009;28;20474;-79
2021/11/02 18:42:43;;;;;;;8.27;4.50;;;;;;;;;;5069955;28;20428;-82
2021/11/02 18:45:10;;;;;;;6.80;4.17;;;;;;;;;;5063809;28;21393;-84
2021/11/02 18:47:38;;;;;;;5.90;4.00;;;;;;;;;;5072154;28;20531;-86
2021/11/02 18:50:06;;;;;;;6.70;4.63;;;;;;;;;;5069887;28;20456;-82
2021/11/02 18:52:33;;;;;;;6.50;4.77;;;;;;;;;;5071810;28;20452;-81
2021/11/02 18:55:00;;;;;;;6.53;4.50;;;;;;;;;;5071799;28;20460;-83
2021/11/02 18:57:28;;;;;;;9.10;4.73;;;;;;;;;;5067295;28;20484;-79
2021/11/02 18:59:56;;;;;;;7.97;5.00;;;;;;;;;;5068277;28;20445;-80
2021/11/02 19:02:23;;;;;;;10.43;6.00;;;;;;;;;;5063378;28;20475;-82
2021/11/02 19:04:50;;;;;;;9.10;6.50;;;;;;;;;;5066041;28;20476;-80
2021/11/02 19:07:18;;;;;;;9.43;5.00;;;;;;;;;;5070168;28;20484;-77
2021/11/02 19:09:45;;;;;;;11.70;5.40;;;;;;;;;;5071533;28;20479;-81
2021/11/02 19:12:15;;;;;;;8.37;4.60;;;;;;;;;;5060869;28;20464;-80
2021/11/02 19:14:42;;;;;;;5.60;4.30;;;;;;;;;;5064424;28;20979;-81
2021/11/02 19:17:10;;;;;;;7.23;4.30;;;;;;;;;;5064688;28;20484;-76
2021/11/02 19:19:38;;;;;;;4.83;3.87;;;;;;;;;;5057511;28;20476;-79
2021/11/02 19:22:05;;;;;;;6.60;4.23;;;;;;;;;;5071107;28;20441;-78
2021/11/02 19:24:33;;;;;;;5.60;4.00;;;;;;;;;;5071379;28;20440;-79
2021/11/02 19:27:00;;;;;;;6.03;3.60;;;;;;;;;;5067479;28;20468;-78
2021/11/02 19:29:27;;;;;;;5.10;3.53;;;;;;;;;;5063855;28;20484;-81